SAAP/PRA METAR and TAF weather

Enter ICAO airport designator
Station Type Date Time Source
SAAP METAR 2021/07/26 12:25 UTC NOAA

SAAP 261225Z 16010KT 1200 BR BKN002 BKN003 09/09 Q1016 REFG


Station Type Date Time Source
SAAP Decoded METAR 2021/07/26 12:25 UTC NOAA

Parana Aerodrome, Argentina (SAAP) 31-47S 060-29W 78M
Jul 26, 2021 - 08:25 AM EDT / 2021.07.26 1225 UTC
Wind: from the SSE (160 degrees) at 12 MPH (10 KT):0
Visibility: less than 1 mile:0
Sky conditions: mostly cloudy
Weather: mist
Temperature: 48 F (9 C)
Dew Point: 48 F (9 C)
Relative Humidity: 100%
Pressure (altimeter): 30.00 in. Hg (1016 hPa)
ob: SAAP 261225Z 16010KT 1200 BR BKN002 BKN003 09/09 Q1016 REFG
cycle: 12

Station Type Date Time Source
SAAP TAF 2021/06/02 00:39 UTC NOAA

TAF TAF SAAP 022300Z 0300/0324 16005KT CAVOK TX22/0318Z TN07/0311Z
BECMG 0301/0303 VRB03KT PROB30 0308/0312 3000 BR NSC
BECMG 0313/0315 36010KT CAVOK

Example: see airport list